Time;durP1;ratioP1;P1;durP2;ratioP2;P2;SDS_P1;SDS_P2;PMS_P1;PMS_P2;Temp;Humidity;BMP_temperature;BMP_pressure;BME280_temperature;BME280_humidity;BME280_pressure;Samples;Min_cycle;Max_cycle;Signal;HPM_P1;HPM_P2
2022/04/09 00:01:35;;;;;;;16.83;12.27;;;;;;;3.42;100.00;97525.31;4992988;28;20199;-78
2022/04/09 00:04:04;;;;;;;16.37;12.10;;;;;;;3.38;100.00;97511.59;4992155;28;20287;-78
2022/04/09 00:06:33;;;;;;;13.93;11.30;;;;;;;3.31;100.00;97525.97;4951514;28;20204;-78
2022/04/09 00:09:08;;;;;;;15.33;11.33;;;;;;;3.23;100.00;97525.59;4949220;28;20204;-78
2022/04/09 00:11:37;;;;;;;16.70;11.70;;;;;;;3.21;100.00;97532.72;4954086;28;20216;-78
2022/04/09 00:14:06;;;;;;;17.20;11.43;;;;;;;3.26;100.00;97535.03;4951187;28;20640;-78
2022/04/09 00:16:36;;;;;;;16.70;11.97;;;;;;;3.23;100.00;97543.06;4952596;28;20283;-78
2022/04/09 00:19:06;;;;;;;19.03;12.30;;;;;;;3.26;100.00;97551.56;4952365;28;20310;-79
2022/04/09 00:21:36;;;;;;;18.20;12.03;;;;;;;3.24;100.00;97568.28;4956042;28;20200;-78
2022/04/09 00:24:08;;;;;;;17.63;11.70;;;;;;;3.29;100.00;97580.19;4907101;29;20188;-78
2022/04/09 00:26:38;;;;;;;17.67;12.50;;;;;;;3.23;100.00;97577.06;4953679;28;20783;-78
2022/04/09 00:29:07;;;;;;;20.17;12.87;;;;;;;3.25;100.00;97589.13;4953444;28;20250;-78
2022/04/09 00:31:39;;;;;;;18.90;12.13;;;;;;;3.26;100.00;97592.59;4975436;28;20203;-78
2022/04/09 00:34:10;;;;;;;17.67;12.27;;;;;;;3.25;100.00;97591.75;4994586;28;20654;-79
2022/04/09 00:36:40;;;;;;;19.60;13.43;;;;;;;3.24;100.00;97597.91;4991527;28;20206;-78
2022/04/09 00:39:10;;;;;;;18.70;12.73;;;;;;;3.21;100.00;97599.88;4989766;28;20223;-78
2022/04/09 00:41:41;;;;;;;20.20;12.77;;;;;;;3.26;100.00;97618.75;4988906;28;20215;-78
2022/04/09 00:44:16;;;;;;;23.67;13.97;;;;;;;3.24;100.00;97623.22;4994478;28;20234;-78
2022/04/09 00:46:47;;;;;;;19.97;13.77;;;;;;;3.22;100.00;97631.19;4970856;28;20187;-77
2022/04/09 00:49:18;;;;;;;19.97;12.77;;;;;;;3.26;100.00;97634.44;4973815;28;20200;-78
2022/04/09 00:51:51;;;;;;;23.43;14.23;;;;;;;3.26;100.00;97640.50;4975014;28;20207;-79
2022/04/09 00:54:24;;;;;;;19.80;13.37;;;;;;;3.28;100.00;97648.25;4931100;29;20212;-78
2022/04/09 00:56:54;;;;;;;20.20;13.47;;;;;;;3.34;100.00;97653.97;4934143;29;20224;-78
2022/04/09 00:59:29;;;;;;;18.50;12.30;;;;;;;3.36;100.00;97661.75;4933526;29;20245;-78
2022/04/09 01:02:01;;;;;;;16.23;11.53;;;;;;;3.42;100.00;97669.25;4928189;29;20205;-78
2022/04/09 01:04:32;;;;;;;15.27;11.33;;;;;;;3.42;100.00;97675.31;4891312;29;20208;-78
2022/04/09 01:07:03;;;;;;;17.40;10.77;;;;;;;3.51;100.00;97694.88;4910088;29;20212;-78
2022/04/09 01:09:36;;;;;;;17.10;10.77;;;;;;;3.62;100.00;97694.22;4910923;29;20242;-77
2022/04/09 01:12:10;;;;;;;19.00;10.80;;;;;;;3.63;100.00;97686.28;4928777;28;20196;-78
2022/04/09 01:14:40;;;;;;;21.43;13.97;;;;;;;3.57;100.00;97699.75;4949034;28;20208;-77
2022/04/09 01:17:09;;;;;;;17.13;11.73;;;;;;;3.66;100.00;97703.56;4953194;28;20283;-81
2022/04/09 01:19:39;;;;;;;19.97;13.23;;;;;;;3.63;100.00;97698.53;4950576;28;20224;-78
2022/04/09 01:22:16;;;;;;;16.47;12.03;;;;;;;3.65;100.00;97707.97;4956873;28;20292;-80
2022/04/09 01:24:46;;;;;;;19.80;11.90;;;;;;;3.60;100.00;97714.44;4994199;28;20225;-77
2022/04/09 01:27:14;;;;;;;19.47;12.67;;;;;;;3.62;100.00;97721.25;4994670;28;20227;-79
2022/04/09 01:29:43;;;;;;;18.23;11.83;;;;;;;3.60;100.00;97724.91;4990665;28;20207;-78
2022/04/09 01:32:12;;;;;;;17.67;11.20;;;;;;;3.61;100.00;97731.81;4991256;28;20218;-78
2022/04/09 01:34:41;;;;;;;16.20;11.70;;;;;;;3.68;100.00;97741.00;4994852;28;20253;-80
2022/04/09 01:37:14;;;;;;;14.60;10.33;;;;;;;3.65;100.00;97742.00;4990512;28;20206;-79
2022/04/09 01:39:43;;;;;;;19.67;11.33;;;;;;;3.68;100.00;97747.06;4992348;28;20225;-78
2022/04/09 01:42:13;;;;;;;19.50;11.17;;;;;;;3.72;100.00;97756.41;4989325;28;20214;-79
2022/04/09 01:44:44;;;;;;;16.53;10.43;;;;;;;3.60;100.00;97756.31;4990869;28;20202;-78
2022/04/09 01:47:14;;;;;;;15.00;10.10;;;;;;;3.64;100.00;97768.28;4995010;28;20203;-78
2022/04/09 01:49:43;;;;;;;17.80;9.93;;;;;;;3.59;100.00;97776.41;4992774;28;20230;-78
2022/04/09 01:52:13;;;;;;;15.87;9.97;;;;;;;3.50;100.00;97776.09;4977588;28;20254;-77
2022/04/09 01:54:42;;;;;;;14.97;9.40;;;;;;;3.52;100.00;97787.31;4992749;28;20195;-78
2022/04/09 01:57:11;;;;;;;11.83;8.60;;;;;;;3.45;100.00;97797.28;4991678;28;20704;-78
2022/04/09 01:59:43;;;;;;;12.83;8.93;;;;;;;3.41;100.00;97804.47;4993837;28;20219;-78
2022/04/09 02:02:12;;;;;;;16.27;8.73;;;;;;;3.38;100.00;97804.66;4968587;28;20196;-78
2022/04/09 02:04:41;;;;;;;14.03;8.03;;;;;;;3.33;100.00;97811.06;4973852;28;20191;-78
2022/04/09 02:07:09;;;;;;;13.17;7.90;;;;;;;3.28;100.00;97811.34;4968770;28;20202;-77
2022/04/09 02:09:42;;;;;;;12.77;7.70;;;;;;;3.34;100.00;97821.44;4971835;28;20235;-78
2022/04/09 02:12:11;;;;;;;12.93;7.63;;;;;;;3.33;100.00;97821.53;4971141;28;20327;-79
2022/04/09 02:14:40;;;;;;;11.90;7.80;;;;;;;3.36;100.00;97827.44;4970840;28;20200;-78
2022/04/09 02:17:09;;;;;;;11.03;7.60;;;;;;;3.34;100.00;97831.91;4970966;28;20310;-79
2022/04/09 02:19:38;;;;;;;10.47;6.53;;;;;;;3.33;100.00;97835.47;4970324;28;20226;-78
2022/04/09 02:22:06;;;;;;;11.70;6.80;;;;;;;3.40;100.00;97836.81;4970754;28;20204;-78
2022/04/09 02:24:35;;;;;;;13.47;6.80;;;;;;;3.41;100.00;97843.72;4975472;28;20195;-79
2022/04/09 02:27:06;;;;;;;10.67;6.80;;;;;;;3.46;100.00;97848.69;4984685;28;20231;-78
2022/04/09 02:29:36;;;;;;;13.17;6.43;;;;;;;3.32;100.00;97852.09;4933560;29;20204;-79
2022/04/09 02:32:05;;;;;;;12.20;5.87;;;;;;;3.22;100.00;97861.38;4931985;29;20208;-78
2022/04/09 02:34:33;;;;;;;10.73;6.33;;;;;;;3.34;100.00;97859.84;4928267;29;20201;-78
2022/04/09 02:37:02;;;;;;;11.57;5.60;;;;;;;3.29;100.00;97865.34;4927924;29;20696;-78
2022/04/09 02:39:32;;;;;;;9.37;5.70;;;;;;;3.29;100.00;97867.97;4928167;29;20520;-79
2022/04/09 02:42:01;;;;;;;14.50;5.87;;;;;;;3.26;100.00;97872.50;4927790;29;20221;-78
2022/04/09 02:44:31;;;;;;;10.70;5.03;;;;;;;3.33;100.00;97893.03;4929899;29;20190;-78
2022/04/09 02:46:59;;;;;;;12.93;5.50;;;;;;;3.29;100.00;97898.53;4930934;29;20320;-79
2022/04/09 02:49:28;;;;;;;9.53;5.37;;;;;;;3.33;100.00;97897.41;4929850;29;20203;-78
2022/04/09 02:51:56;;;;;;;13.03;5.80;;;;;;;3.26;100.00;97903.91;4931616;29;20212;-79
2022/04/09 02:54:25;;;;;;;9.37;5.40;;;;;;;3.27;100.00;97913.44;4961262;28;20282;-78
2022/04/09 02:56:54;;;;;;;9.73;4.67;;;;;;;3.30;100.00;97919.38;4987580;28;20214;-78
2022/04/09 02:59:23;;;;;;;8.53;4.90;;;;;;;3.36;100.00;97920.78;4972408;28;20219;-78
2022/04/09 03:01:56;;;;;;;8.00;4.67;;;;;;;3.36;100.00;97926.84;4992076;28;20231;-79
2022/04/09 03:04:25;;;;;;;7.87;4.47;;;;;;;3.30;100.00;97927.22;4994278;28;20230;-80
2022/04/09 03:06:56;;;;;;;9.50;4.70;;;;;;;3.29;100.00;97927.31;4989958;28;20199;-78
2022/04/09 03:09:28;;;;;;;8.50;4.93;;;;;;;3.36;100.00;97928.63;4988676;28;20195;-78
2022/04/09 03:11:57;;;;;;;7.50;4.77;;;;;;;3.31;100.00;97935.91;4990489;28;20246;-79
2022/04/09 03:14:25;;;;;;;8.33;5.03;;;;;;;3.33;100.00;97949.75;4989311;28;20646;-79
2022/04/09 03:16:56;;;;;;;9.73;4.67;;;;;;;3.33;100.00;97952.38;4989992;28;20213;-79
2022/04/09 03:19:24;;;;;;;11.60;5.03;;;;;;;3.35;100.00;97958.34;4986605;28;20211;-79
2022/04/09 03:21:55;;;;;;;9.23;5.00;;;;;;;3.45;100.00;97965.63;4989734;28;20199;-78
2022/04/09 03:24:23;;;;;;;13.43;5.80;;;;;;;3.54;100.00;97972.13;4993715;28;20207;-78
2022/04/09 03:26:55;;;;;;;8.70;4.90;;;;;;;3.54;100.00;97974.75;4990717;28;20199;-79
2022/04/09 03:29:24;;;;;;;11.23;5.47;;;;;;;3.50;100.00;97972.38;4957400;28;20673;-79
2022/04/09 03:31:54;;;;;;;7.30;5.27;;;;;;;3.53;100.00;97983.53;4996632;28;20203;-79
2022/04/09 03:34:23;;;;;;;12.07;5.40;;;;;;;3.52;100.00;97987.06;4997166;28;20237;-78
2022/04/09 03:36:54;;;;;;;12.53;4.90;;;;;;;3.60;100.00;97992.75;4994294;28;20198;-78
2022/04/09 03:39:23;;;;;;;9.47;5.17;;;;;;;3.66;100.00;97996.78;4994697;28;20218;-79
2022/04/09 03:41:52;;;;;;;12.27;5.80;;;;;;;3.70;100.00;97993.09;4990526;28;20206;-79
2022/04/09 03:44:40;;;;;;;9.83;5.77;;;;;;;3.66;100.00;98005.47;4998238;28;20199;-80
2022/04/09 03:47:10;;;;;;;13.90;5.90;;;;;;;3.66;100.00;97994.16;5001434;28;20281;-79
2022/04/09 03:49:39;;;;;;;11.23;5.93;;;;;;;3.62;100.00;97995.28;5005742;28;20207;-79
2022/04/09 03:52:09;;;;;;;11.37;6.00;;;;;;;3.63;100.00;98004.81;5021872;28;20213;-79
2022/04/09 03:54:38;;;;;;;11.10;5.87;;;;;;;3.60;100.00;98007.59;4950066;28;20239;-79
2022/04/09 03:57:07;;;;;;;10.47;5.83;;;;;;;3.59;100.00;98004.16;4972313;28;20724;-79
2022/04/09 03:59:35;;;;;;;13.63;6.57;;;;;;;3.56;100.00;98004.28;4973521;28;20226;-79
2022/04/09 04:02:04;;;;;;;11.27;5.80;;;;;;;3.64;100.00;98019.59;4973441;28;20207;-79
2022/04/09 04:04:37;;;;;;;12.17;5.63;;;;;;;3.60;100.00;98021.53;4914237;29;20261;-79
2022/04/09 04:07:07;;;;;;;9.93;6.43;;;;;;;3.54;100.00;98028.88;4915734;29;20202;-79
2022/04/09 04:09:37;;;;;;;15.57;6.53;;;;;;;3.48;100.00;98037.91;4913772;29;20662;-79
2022/04/09 04:12:07;;;;;;;13.53;6.30;;;;;;;3.45;100.00;98032.81;4915407;29;20217;-79
2022/04/09 04:14:36;;;;;;;16.90;5.97;;;;;;;3.50;100.00;98048.28;4917549;29;20261;-79
2022/04/09 04:17:05;;;;;;;14.03;6.47;;;;;;;3.56;100.00;98042.72;4915243;29;20196;-79
2022/04/09 04:19:39;;;;;;;12.43;5.90;;;;;;;3.50;100.00;98045.69;4892153;29;20210;-79
2022/04/09 04:22:08;;;;;;;15.33;6.50;;;;;;;3.51;100.00;98048.22;4896457;29;20203;-79
2022/04/09 04:24:37;;;;;;;12.80;6.37;;;;;;;3.48;100.00;98044.91;4823974;29;20193;-77
2022/04/09 04:27:07;;;;;;;11.10;6.33;;;;;;;3.51;100.00;98042.97;4858396;29;20273;-79
2022/04/09 04:29:36;;;;;;;11.93;6.40;;;;;;;3.44;100.00;98065.16;4872785;29;20222;-78
2022/04/09 04:32:06;;;;;;;11.23;5.70;;;;;;;3.42;100.00;98064.41;4873074;29;20507;-78
2022/04/09 04:34:34;;;;;;;11.47;6.10;;;;;;;3.40;100.00;98074.09;4842302;29;20300;-79
2022/04/09 04:37:05;;;;;;;8.23;6.13;;;;;;;3.34;100.00;98088.34;4884720;29;20353;-78
2022/04/09 04:39:34;;;;;;;10.20;5.57;;;;;;;3.31;100.00;98096.38;4916713;29;20205;-79
2022/04/09 04:42:02;;;;;;;12.53;5.97;;;;;;;3.26;100.00;98097.50;4936748;29;20213;-79
2022/04/09 04:44:32;;;;;;;9.37;5.90;;;;;;;3.27;100.00;98102.66;4903224;29;20273;-79
2022/04/09 04:47:02;;;;;;;15.30;6.63;;;;;;;3.34;100.00;98108.44;4936434;29;20201;-79
2022/04/09 04:49:34;;;;;;;12.00;6.10;;;;;;;3.27;100.00;98112.28;4906409;29;20199;-79
2022/04/09 04:52:07;;;;;;;15.60;6.20;;;;;;;3.32;100.00;98124.22;4929340;29;20201;-79
2022/04/09 04:54:39;;;;;;;14.93;5.93;;;;;;;3.38;100.00;98133.53;4933661;29;20204;-79
2022/04/09 04:57:08;;;;;;;9.93;5.70;;;;;;;3.37;100.00;98132.66;4932787;29;20190;-78
2022/04/09 04:59:38;;;;;;;13.43;6.27;;;;;;;3.34;100.00;98140.69;4930824;29;20284;-78
2022/04/09 05:02:06;;;;;;;12.07;4.83;;;;;;;3.40;100.00;98139.53;4929449;29;20201;-79
2022/04/09 05:04:35;;;;;;;11.70;5.43;;;;;;;3.43;100.00;98152.44;4936003;29;20276;-78
2022/04/09 05:07:06;;;;;;;16.27;6.03;;;;;;;3.34;100.00;98145.91;4934823;29;20193;-79
2022/04/09 05:09:36;;;;;;;9.97;4.63;;;;;;;3.38;100.00;98151.84;4932486;29;20208;-79
2022/04/09 05:12:06;;;;;;;10.17;5.37;;;;;;;3.39;100.00;98151.78;4918824;29;20223;-78
2022/04/09 05:14:35;;;;;;;8.80;4.50;;;;;;;3.48;100.00;98145.22;4932681;29;20229;-78
2022/04/09 05:17:04;;;;;;;14.00;5.23;;;;;;;3.54;100.00;98159.75;4930714;29;20229;-78
2022/04/09 05:19:32;;;;;;;11.70;5.20;;;;;;;3.60;100.00;98162.06;4935751;29;20734;-79
2022/04/09 05:22:02;;;;;;;10.87;5.40;;;;;;;3.58;100.00;98158.69;4928178;29;20236;-79
2022/04/09 05:24:32;;;;;;;13.37;5.07;;;;;;;3.60;100.00;98162.91;4918770;29;20773;-79
2022/04/09 05:27:04;;;;;;;8.10;5.07;;;;;;;3.58;100.00;98166.53;4958719;28;20262;-79
2022/04/09 05:29:33;;;;;;;15.23;5.33;;;;;;;3.57;100.00;98162.19;4914769;29;20257;-78
2022/04/09 05:32:02;;;;;;;10.67;4.83;;;;;;;3.55;100.00;98167.50;4914342;29;20289;-80
2022/04/09 05:34:31;;;;;;;10.83;4.70;;;;;;;3.60;100.00;98165.53;4915813;29;20212;-78
2022/04/09 05:37:01;;;;;;;12.73;4.60;;;;;;;3.66;100.00;98177.44;4916571;29;20194;-79
2022/04/09 05:39:29;;;;;;;18.20;5.13;;;;;;;3.72;100.00;98175.34;4917217;29;20288;-78
2022/04/09 05:42:02;;;;;;;6.37;4.33;;;;;;;3.67;100.00;98185.22;4845532;29;20228;-79
2022/04/09 05:44:32;;;;;;;9.40;4.77;;;;;;;3.83;100.00;98193.13;4841680;29;20249;-78
2022/04/09 05:47:03;;;;;;;11.87;5.13;;;;;;;3.84;100.00;98186.94;4818701;29;20282;-79
2022/04/09 05:49:32;;;;;;;14.27;4.93;;;;;;;3.88;100.00;98187.66;4878500;29;20211;-79
2022/04/09 05:52:06;;;;;;;13.63;4.97;;;;;;;3.86;100.00;98192.97;4878644;29;20695;-78
2022/04/09 05:54:35;;;;;;;13.60;4.93;;;;;;;3.92;100.00;98200.50;4874920;29;20203;-79
2022/04/09 05:57:07;;;;;;;11.83;5.47;;;;;;;3.93;100.00;98211.81;4875340;29;20200;-78
2022/04/09 05:59:41;;;;;;;11.33;4.30;;;;;;;4.01;100.00;98210.47;4890443;29;20205;-78
2022/04/09 06:02:11;;;;;;;14.73;4.43;;;;;;;4.02;100.00;98217.41;4914381;29;20221;-79
2022/04/09 06:04:40;;;;;;;7.93;4.13;;;;;;;4.10;100.00;98218.78;4913356;29;20298;-78
2022/04/09 06:07:13;;;;;;;10.83;4.43;;;;;;;4.18;100.00;98230.56;4907753;29;20214;-79
2022/04/09 06:09:42;;;;;;;11.40;4.50;;;;;;;4.20;100.00;98223.47;4909495;29;20210;-79
2022/04/09 06:12:14;;;;;;;10.57;4.40;;;;;;;4.16;100.00;98231.59;4912963;29;20209;-79
2022/04/09 06:14:44;;;;;;;12.87;4.53;;;;;;;4.28;100.00;98246.66;4913361;29;20202;-78
2022/04/09 06:17:15;;;;;;;15.23;4.60;;;;;;;4.36;100.00;98251.47;4920693;28;20281;-79
2022/04/09 06:19:46;;;;;;;12.43;4.90;;;;;;;4.44;100.00;98257.13;4980344;28;20210;-78
2022/04/09 06:22:15;;;;;;;11.77;4.97;;;;;;;4.53;100.00;98264.50;4994105;28;20219;-79
2022/04/09 06:24:43;;;;;;;11.80;4.73;;;;;;;4.67;100.00;98271.66;4957992;28;20673;-79
2022/04/09 06:27:14;;;;;;;10.23;4.60;;;;;;;4.62;100.00;98273.66;4992185;28;20262;-79
2022/04/09 06:29:43;;;;;;;11.70;4.67;;;;;;;4.70;100.00;98282.81;4988901;28;20206;-79
2022/04/09 06:32:11;;;;;;;10.93;4.30;;;;;;;4.88;100.00;98280.97;4971263;28;20202;-79
2022/04/09 06:34:41;;;;;;;9.57;3.97;;;;;;;4.89;100.00;98294.00;4966531;28;20716;-79
2022/04/09 06:37:10;;;;;;;8.37;3.87;;;;;;;4.91;100.00;98299.16;4967562;28;20342;-78
2022/04/09 06:39:40;;;;;;;9.93;4.07;;;;;;;4.98;100.00;98300.50;4965266;28;20203;-78
2022/04/09 06:42:10;;;;;;;8.67;3.83;;;;;;;4.86;100.00;98309.91;4915317;29;20236;-79
2022/04/09 06:44:46;;;;;;;9.07;3.73;;;;;;;4.78;100.00;98309.47;4909466;29;20210;-78
2022/04/09 06:47:15;;;;;;;12.13;3.90;;;;;;;4.74;100.00;98302.72;4911642;29;20209;-79
2022/04/09 06:49:45;;;;;;;9.10;3.20;;;;;;;4.72;100.00;98311.56;4918477;29;20197;-78
2022/04/09 06:52:18;;;;;;;6.87;3.43;;;;;;;4.65;100.00;98308.44;4931631;28;20207;-78
2022/04/09 06:54:48;;;;;;;7.97;3.30;;;;;;;4.64;100.00;98306.75;4950254;28;20263;-79
2022/04/09 06:57:17;;;;;;;9.87;3.90;;;;;;;4.57;100.00;98314.09;4928414;29;20209;-79
2022/04/09 06:59:57;;;;;;;8.43;3.10;;;;;;;4.65;100.00;98318.09;4880764;29;20197;-78
2022/04/09 07:02:27;;;;;;;8.10;3.00;;;;;;;4.64;100.00;98312.00;4893425;29;20222;-78
2022/04/09 07:04:57;;;;;;;6.77;3.10;;;;;;;4.67;100.00;98321.47;4863436;29;20222;-78
2022/04/09 07:07:33;;;;;;;6.50;2.90;;;;;;;4.77;100.00;98313.03;4919765;29;20289;-79
2022/04/09 07:10:07;;;;;;;6.80;2.87;;;;;;;4.90;100.00;98321.06;4930662;29;20211;-79
2022/04/09 07:12:36;;;;;;;10.60;2.77;;;;;;;5.00;100.00;98310.91;4929582;29;20200;-79
2022/04/09 07:15:07;;;;;;;7.10;2.60;;;;;;;5.09;100.00;98320.91;4932223;29;20278;-79
2022/04/09 07:17:38;;;;;;;9.40;3.13;;;;;;;5.24;100.00;98327.09;4950094;28;20204;-79
2022/04/09 07:20:09;;;;;;;8.87;2.90;;;;;;;5.35;100.00;98328.19;4960678;28;20191;-79
2022/04/09 07:22:40;;;;;;;11.00;2.93;;;;;;;5.51;100.00;98335.22;4991953;28;20218;-79
2022/04/09 07:25:11;;;;;;;7.53;2.77;;;;;;;5.51;100.00;98336.06;4997430;28;20199;-79
2022/04/09 07:27:42;;;;;;;9.33;2.87;;;;;;;5.59;100.00;98340.84;4963313;28;20230;-79
2022/04/09 07:30:16;;;;;;;7.13;2.53;;;;;;;5.82;100.00;98347.44;4997542;28;20199;-79
2022/04/09 07:32:46;;;;;;;8.33;2.67;;;;;;;6.01;100.00;98351.56;4998351;28;20205;-79
2022/04/09 07:35:16;;;;;;;6.73;2.80;;;;;;;5.99;100.00;98371.84;4993654;28;20210;-79
2022/04/09 07:37:49;;;;;;;6.87;2.40;;;;;;;5.81;100.00;98375.50;4995580;28;20199;-78
2022/04/09 07:40:20;;;;;;;7.00;2.80;;;;;;;5.84;100.00;98370.03;4994086;28;20239;-78
2022/04/09 07:42:52;;;;;;;6.77;3.20;;;;;;;5.86;100.00;98375.22;4994235;28;20219;-80
2022/04/09 07:45:23;;;;;;;10.33;3.00;;;;;;;6.03;100.00;98375.13;4997157;28;20199;-80
2022/04/09 07:47:54;;;;;;;8.03;3.23;;;;;;;5.82;100.00;98378.97;4992315;28;20715;-78
2022/04/09 07:50:25;;;;;;;5.90;2.90;;;;;;;5.90;100.00;98376.75;4996408;28;20250;-79
2022/04/09 07:52:54;;;;;;;6.67;2.40;;;;;;;6.09;100.00;98384.44;4993334;28;20197;-78
2022/04/09 07:55:23;;;;;;;7.73;2.83;;;;;;;6.18;100.00;98383.91;4993178;28;20226;-78
2022/04/09 07:57:55;;;;;;;9.57;2.90;;;;;;;6.41;100.00;98386.00;4997098;28;20203;-78
2022/04/09 08:00:25;;;;;;;10.53;3.00;;;;;;;6.48;100.00;98392.59;4995647;28;20191;-78
2022/04/09 08:02:55;;;;;;;7.90;2.70;;;;;;;6.34;100.00;98381.19;4998647;28;20229;-78
2022/04/09 08:05:26;;;;;;;8.40;2.40;;;;;;;6.38;100.00;98386.22;4994672;28;20195;-78
2022/04/09 08:07:57;;;;;;;7.40;2.43;;;;;;;6.31;100.00;98395.38;4993702;28;20219;-79
2022/04/09 08:10:25;;;;;;;9.97;2.13;;;;;;;6.20;100.00;98388.13;4991210;28;20274;-78
2022/04/09 08:12:54;;;;;;;6.93;2.40;;;;;;;6.31;100.00;98395.38;4970108;28;20275;-78
2022/04/09 08:15:24;;;;;;;8.40;2.67;;;;;;;6.77;100.00;98403.16;4968594;28;20249;-78
2022/04/09 08:17:56;;;;;;;7.83;2.00;;;;;;;6.60;100.00;98396.28;4966879;28;20189;-78
2022/04/09 08:20:44;;;;;;;8.07;2.57;;;;;;;6.50;100.00;98409.13;4974788;28;20200;-79
2022/04/09 08:23:14;;;;;;;11.70;2.40;;;;;;;6.34;100.00;98403.09;4969635;28;20230;-79
2022/04/09 08:25:42;;;;;;;6.00;2.17;;;;;;;6.36;100.00;98422.25;4972265;28;20214;-79
2022/04/09 08:28:11;;;;;;;5.87;2.20;;;;;;;6.31;100.00;98427.78;4971760;28;20331;-78
2022/04/09 08:30:43;;;;;;;4.97;2.00;;;;;;;6.31;100.00;98414.63;4976466;28;20203;-78
2022/04/09 08:33:15;;;;;;;7.67;2.47;;;;;;;6.43;100.00;98420.94;4994923;28;20218;-78
2022/04/09 08:35:44;;;;;;;8.77;2.67;;;;;;;6.70;100.00;98420.25;4994851;28;20191;-78
2022/04/09 08:38:12;;;;;;;9.33;2.47;;;;;;;6.78;100.00;98418.00;4972330;28;20198;-78
2022/04/09 08:40:43;;;;;;;11.27;2.60;;;;;;;6.86;100.00;98410.50;4955218;28;20703;-78
2022/04/09 08:43:11;;;;;;;11.60;2.60;;;;;;;7.01;100.00;98421.88;4952703;28;20222;-78
2022/04/09 08:45:42;;;;;;;5.07;1.80;;;;;;;7.14;100.00;98414.88;4956637;28;20204;-79
2022/04/09 08:48:12;;;;;;;6.63;2.50;;;;;;;7.45;100.00;98416.47;4948460;28;20216;-79
2022/04/09 08:50:44;;;;;;;12.90;3.00;;;;;;;7.36;100.00;98414.41;4955977;28;20193;-79
2022/04/09 08:53:13;;;;;;;8.37;2.20;;;;;;;7.12;100.00;98430.78;4951411;28;20208;-79
2022/04/09 08:55:43;;;;;;;7.67;3.00;;;;;;;7.03;100.00;98433.97;4968415;28;20192;-79
2022/04/09 08:58:12;;;;;;;8.63;2.53;;;;;;;6.88;100.00;98437.56;4974621;28;20318;-80
2022/04/09 09:00:42;;;;;;;8.10;2.10;;;;;;;6.88;100.00;98437.56;4994243;28;20209;-80
2022/04/09 09:03:16;;;;;;;10.53;2.13;;;;;;;7.08;100.00;98458.25;4993282;28;20309;-80
2022/04/09 09:05:52;;;;;;;8.07;2.10;;;;;;;6.92;100.00;98444.31;4991562;28;20191;-79
2022/04/09 09:08:37;;;;;;;7.07;2.10;;;;;;;7.28;100.00;98433.34;4992935;28;20203;-82
2022/04/09 09:11:07;;;;;;;5.30;2.10;;;;;;;7.24;100.00;98444.13;4990100;28;20203;-79
2022/04/09 09:13:47;;;;;;;11.63;3.30;;;;;;;7.36;100.00;98432.84;4991844;28;20211;-79
2022/04/09 09:16:25;;;;;;;5.53;1.87;;;;;;;7.57;100.00;98430.66;4994778;28;20218;-79
2022/04/09 09:18:58;;;;;;;9.23;2.23;;;;;;;7.88;100.00;98451.47;4995235;28;20214;-79
2022/04/09 09:21:27;;;;;;;7.37;1.90;;;;;;;7.75;100.00;98429.47;4993217;28;20203;-79
2022/04/09 09:24:15;;;;;;;5.87;2.30;;;;;;;7.97;100.00;98435.06;4991397;28;20219;-80
2022/04/09 09:26:45;;;;;;;4.53;1.80;;;;;;;7.89;100.00;98436.50;4992936;28;20199;-80
2022/04/09 09:29:26;;;;;;;9.13;1.80;;;;;;;8.12;100.00;98443.78;4993398;28;20207;-79
2022/04/09 09:31:55;;;;;;;8.60;2.00;;;;;;;8.22;100.00;98446.66;4995333;28;20258;-79
2022/04/09 09:34:26;;;;;;;5.60;1.90;;;;;;;8.12;100.00;98440.28;4988558;28;20202;-80
2022/04/09 09:36:57;;;;;;;7.83;1.77;;;;;;;8.25;100.00;98451.72;4994022;28;20646;-79
2022/04/09 09:39:27;;;;;;;3.60;1.70;;;;;;;7.69;100.00;98441.25;4971523;28;20188;-81
2022/04/09 09:42:05;;;;;;;4.67;1.50;;;;;;;7.73;100.00;98453.31;4972731;28;20203;-80
2022/04/09 09:44:46;;;;;;;6.83;1.87;;;;;;;7.87;100.00;98464.75;4973379;28;20309;-80
2022/04/09 09:47:22;;;;;;;6.67;1.77;;;;;;;8.21;100.00;98451.09;4969997;28;20195;-80
2022/04/09 09:49:55;;;;;;;5.67;1.57;;;;;;;8.26;100.00;98445.50;4969370;28;20204;-80
2022/04/09 09:52:26;;;;;;;6.80;1.83;;;;;;;8.03;100.00;98447.84;4966189;28;20223;-79
2022/04/09 09:54:56;;;;;;;8.10;2.00;;;;;;;8.26;100.00;98453.41;4968432;28;20195;-80
2022/04/09 09:57:28;;;;;;;11.47;1.70;;;;;;;8.15;100.00;98464.66;4976386;28;20327;-80
2022/04/09 09:59:59;;;;;;;5.90;1.80;;;;;;;8.19;100.00;98468.78;4993617;28;20670;-80
2022/04/09 10:02:32;;;;;;;8.17;2.30;;;;;;;8.27;100.00;98457.72;4990519;28;20203;-81
2022/04/09 10:05:05;;;;;;;7.33;1.73;;;;;;;8.57;100.00;98475.97;4994157;28;20195;-79
2022/04/09 10:07:37;;;;;;;8.00;2.90;;;;;;;8.28;100.00;98472.59;4990382;28;20195;-80
2022/04/09 10:10:08;;;;;;;5.77;1.40;;;;;;;8.27;100.00;98476.19;4994049;28;20222;-80
2022/04/09 10:12:41;;;;;;;6.57;1.60;;;;;;;7.96;100.00;98472.91;4991921;28;20207;-79
2022/04/09 10:15:12;;;;;;;5.67;1.60;;;;;;;8.55;100.00;98470.81;4990064;28;20316;-80
2022/04/09 10:17:41;;;;;;;6.80;1.43;;;;;;;8.94;100.00;98470.88;4988721;28;20343;-79
2022/04/09 10:20:13;;;;;;;7.20;1.53;;;;;;;8.83;100.00;98466.31;4990466;28;20202;-80
2022/04/09 10:22:46;;;;;;;4.57;1.43;;;;;;;8.22;100.00;98473.88;4991568;28;20287;-79
2022/04/09 10:25:19;;;;;;;4.33;1.30;;;;;;;8.14;100.00;98497.25;4992325;28;20191;-79
2022/04/09 10:27:52;;;;;;;2.97;1.30;;;;;;;7.51;100.00;98515.34;4995595;28;20242;-80
2022/04/09 10:30:22;;;;;;;5.53;1.30;;;;;;;7.10;100.00;98509.03;4994894;28;20191;-79
2022/04/09 10:32:53;;;;;;;7.40;1.40;;;;;;;6.86;100.00;98519.25;4992137;28;20199;-79
2022/04/09 10:35:30;;;;;;;4.77;1.67;;;;;;;6.91;100.00;98516.34;4996518;28;20195;-79
2022/04/09 10:38:22;;;;;;;7.63;2.00;;;;;;;7.09;100.00;98504.72;4989559;28;20201;-79
2022/04/09 10:41:32;;;;;;;8.40;1.40;;;;;;;7.73;100.00;98492.84;4992026;28;20239;-79
2022/04/09 10:44:01;;;;;;;6.93;1.80;;;;;;;8.11;100.00;98501.91;4934350;29;20225;-79
2022/04/09 10:46:36;;;;;;;5.33;1.60;;;;;;;8.73;100.00;98489.84;4942864;29;20204;-79
2022/04/09 10:49:19;;;;;;;4.20;1.60;;;;;;;8.98;100.00;98490.84;4875830;29;20202;-79
2022/04/09 10:52:14;;;;;;;4.00;1.40;;;;;;;9.29;100.00;98482.50;4874481;29;20211;-79
2022/04/09 10:55:23;;;;;;;6.27;1.70;;;;;;;9.77;100.00;98474.69;4876752;29;20503;-80
2022/04/09 10:58:01;;;;;;;7.93;2.07;;;;;;;9.49;100.00;98486.38;4876437;29;20214;-80
2022/04/09 11:00:34;;;;;;;6.10;1.77;;;;;;;9.59;100.00;98473.38;4875870;29;20198;-81
2022/04/09 11:03:13;;;;;;;4.00;1.40;;;;;;;10.10;100.00;98478.50;4876222;29;20625;-79
2022/04/09 11:05:44;;;;;;;8.90;1.83;;;;;;;9.88;100.00;98484.50;4926783;29;20272;-80
2022/04/09 11:08:21;;;;;;;7.47;2.13;;;;;;;9.54;100.00;98493.97;4984720;28;20469;-79
2022/04/09 11:10:50;;;;;;;7.30;1.83;;;;;;;8.79;100.00;98502.66;4992780;28;20203;-80
2022/04/09 11:13:30;;;;;;;8.33;1.93;;;;;;;8.96;100.00;98503.28;4990109;28;20801;-80
2022/04/09 11:16:06;;;;;;;2.17;1.00;;;;;;;8.81;100.00;98503.41;4971927;28;20230;-79
2022/04/09 11:18:43;;;;;;;3.33;0.80;;;;;;;7.46;100.00;98534.94;4990694;28;20199;-81
2022/04/09 11:21:13;;;;;;;1.17;0.60;;;;;;;5.98;100.00;98569.03;4993486;28;20207;-79
2022/04/09 11:23:45;;;;;;;0.57;0.40;;;;;;;5.11;100.00;98576.25;4930732;29;20221;-79
2022/04/09 11:26:18;;;;;;;1.63;0.83;;;;;;;4.88;100.00;98580.03;4932155;29;20195;-79
2022/04/09 11:28:48;;;;;;;1.13;0.70;;;;;;;4.64;100.00;98599.66;4933558;29;20220;-79
2022/04/09 11:31:22;;;;;;;1.13;0.80;;;;;;;4.56;100.00;98589.53;4932028;29;20193;-79
2022/04/09 11:33:57;;;;;;;1.20;0.70;;;;;;;4.58;100.00;98595.53;4902806;29;20219;-79
2022/04/09 11:36:26;;;;;;;2.30;0.70;;;;;;;4.67;100.00;98586.38;4937765;29;20296;-79
2022/04/09 11:39:01;;;;;;;1.77;0.90;;;;;;;4.73;100.00;98597.41;4930386;29;20196;-79
2022/04/09 11:41:30;;;;;;;1.00;0.70;;;;;;;4.93;100.00;98603.44;4946217;28;20203;-80
2022/04/09 11:44:00;;;;;;;3.10;0.87;;;;;;;5.09;100.00;98597.31;4993920;28;20410;-80
2022/04/09 11:46:32;;;;;;;2.50;0.80;;;;;;;5.35;100.00;98589.91;4988443;28;20195;-80
2022/04/09 11:49:03;;;;;;;3.03;1.23;;;;;;;5.56;100.00;98591.41;4969238;28;20200;-80